Time;durP1;ratioP1;P1;durP2;ratioP2;P2;SDS_P1;SDS_P2;PMS_P1;PMS_P2;Temp;Humidity;BMP_temperature;BMP_pressure;BME280_temperature;BME280_humidity;BME280_pressure;Samples;Min_cycle;Max_cycle;Signal;HPM_P1;HPM_P2
2023/01/04 00:02:47;;;;;;;7.97;3.10;;;;;;;5.62;96.12;101705.38;5978732;29;20035;-76
2023/01/04 00:05:42;;;;;;;11.03;3.00;;;;;;;5.59;96.41;101691.56;5978943;29;20497;-77
2023/01/04 00:08:38;;;;;;;8.27;2.77;;;;;;;5.61;96.43;101695.78;5978992;29;20170;-76
2023/01/04 00:11:33;;;;;;;6.90;3.05;;;;;;;5.66;96.10;101701.63;5979309;29;20027;-77
2023/01/04 00:14:29;;;;;;;4.63;2.53;;;;;;;5.60;96.24;101691.44;5977654;29;20042;-77
2023/01/04 00:17:24;;;;;;;8.73;2.57;;;;;;;5.66;96.67;101699.00;5979257;29;20279;-76
2023/01/04 00:20:19;;;;;;;7.50;2.77;;;;;;;5.66;96.13;101683.22;5979185;28;20054;-77
2023/01/04 00:23:14;;;;;;;5.53;2.03;;;;;;;5.75;96.21;101693.19;5977825;29;20435;-76
2023/01/04 00:26:17;;;;;;;7.83;3.20;;;;;;;5.74;95.65;101680.97;5976309;29;20566;-75
2023/01/04 00:29:13;;;;;;;5.47;2.67;;;;;;;5.75;95.81;101687.94;5969649;29;20035;-75
2023/01/04 00:32:08;;;;;;;8.57;3.00;;;;;;;5.71;95.23;101670.63;5978321;29;20047;-76
2023/01/04 00:35:04;;;;;;;7.97;2.80;;;;;;;5.65;95.69;101664.88;5979030;29;20330;-75
2023/01/04 00:38:00;;;;;;;9.38;2.83;;;;;;;5.65;96.02;101673.63;5978440;29;20035;-76
2023/01/04 00:40:56;;;;;;;8.43;2.55;;;;;;;5.59;95.44;101668.72;5979009;29;20498;-74
2023/01/04 00:43:51;;;;;;;5.73;2.60;;;;;;;5.65;95.88;101660.47;5978157;29;20042;-74
2023/01/04 00:46:47;;;;;;;8.10;3.33;;;;;;;5.71;95.67;101651.34;5979043;29;20031;-73
2023/01/04 00:49:42;;;;;;;13.07;3.22;;;;;;;5.73;95.41;101644.22;5978539;29;20035;-75
2023/01/04 00:52:37;;;;;;;11.47;2.73;;;;;;;5.64;95.23;101650.88;5978040;29;20039;-76
2023/01/04 00:55:33;;;;;;;7.07;2.30;;;;;;;5.55;95.63;101640.91;5978803;29;20034;-75
2023/01/04 00:58:28;;;;;;;5.37;2.43;;;;;;;5.71;95.03;101628.50;5978591;29;20035;-75
2023/01/04 01:01:24;;;;;;;6.50;2.67;;;;;;;5.66;94.95;101627.94;5978713;29;20035;-75
2023/01/04 01:04:21;;;;;;;4.75;2.35;;;;;;;5.64;95.50;101627.22;5978101;29;20114;-75
2023/01/04 01:07:16;;;;;;;5.18;2.55;;;;;;;5.50;95.06;101610.53;5978885;29;20046;-76
2023/01/04 01:10:12;;;;;;;6.50;2.53;;;;;;;5.57;95.77;101602.19;5978350;29;20043;-74
2023/01/04 01:13:07;;;;;;;7.47;2.83;;;;;;;5.44;95.58;101582.81;5977848;29;20093;-76
2023/01/04 01:16:05;;;;;;;6.30;2.63;;;;;;;5.63;95.00;101587.81;5979432;28;20278;-75
2023/01/04 01:19:00;;;;;;;7.15;2.58;;;;;;;5.54;95.38;101580.50;5982163;29;20168;-75
2023/01/04 01:21:56;;;;;;;5.93;2.67;;;;;;;5.59;95.32;101576.66;5980672;29;20035;-75
2023/01/04 01:24:51;;;;;;;8.60;2.97;;;;;;;5.50;95.34;101574.56;5982248;29;20095;-75
2023/01/04 01:27:47;;;;;;;5.57;2.50;;;;;;;5.60;95.18;101566.97;5969886;29;20372;-73
2023/01/04 01:30:42;;;;;;;6.67;2.40;;;;;;;5.65;95.01;101562.28;5982280;29;20041;-74
2023/01/04 01:33:39;;;;;;;7.10;2.53;;;;;;;5.63;94.99;101551.84;5981521;29;20027;-74
2023/01/04 01:36:34;;;;;;;12.32;3.10;;;;;;;5.60;94.63;101554.66;5981723;29;20089;-74
2023/01/04 01:39:29;;;;;;;6.13;2.23;;;;;;;5.59;94.86;101541.59;5964877;29;20038;-73
2023/01/04 01:42:24;;;;;;;7.67;2.20;;;;;;;5.66;94.67;101543.75;5981385;28;20629;-74
2023/01/04 01:45:31;;;;;;;6.50;2.57;;;;;;;5.63;95.00;101536.06;5982218;29;20066;-75
2023/01/04 01:48:28;;;;;;;5.65;2.42;;;;;;;5.64;95.09;101543.00;5981923;29;20379;-75
2023/01/04 01:51:23;;;;;;;7.82;1.88;;;;;;;5.69;95.33;101538.31;5981546;29;20471;-73
2023/01/04 01:54:25;;;;;;;5.80;2.05;;;;;;;5.63;94.91;101538.69;5963934;29;20075;-74
2023/01/04 01:57:23;;;;;;;6.78;2.28;;;;;;;5.60;94.71;101501.22;5981997;29;20063;-76
2023/01/04 02:00:19;;;;;;;8.95;2.30;;;;;;;5.63;94.84;101522.91;5981163;29;20031;-75
2023/01/04 02:03:20;;;;;;;11.45;2.58;;;;;;;5.60;94.75;101509.94;5980877;29;20070;-75
2023/01/04 02:06:20;;;;;;;7.00;2.05;;;;;;;5.74;94.19;101515.19;5964192;29;20042;-74
2023/01/04 02:09:16;;;;;;;9.55;2.50;;;;;;;5.74;94.37;101483.59;5964338;29;20059;-74
2023/01/04 02:12:12;;;;;;;4.38;1.42;;;;;;;5.82;93.57;101485.75;5980940;29;20086;-75
2023/01/04 02:15:07;;;;;;;12.45;3.22;;;;;;;5.92;93.45;101477.22;5981550;29;20039;-74
2023/01/04 02:18:09;;;;;;;6.65;2.03;;;;;;;5.75;93.22;101463.41;5980955;29;20043;-75
2023/01/04 02:21:08;;;;;;;6.43;2.58;;;;;;;5.81;92.71;101436.72;5964186;29;20093;-74
2023/01/04 02:24:23;;;;;;;7.43;2.55;;;;;;;5.99;92.28;101452.19;5962811;29;20047;-74
2023/01/04 02:27:52;;;;;;;7.07;1.98;;;;;;;5.89;92.78;101448.47;5963931;29;20043;-74
2023/01/04 02:31:09;;;;;;;7.30;2.47;;;;;;;5.93;92.85;101442.06;5980473;29;20035;-74
2023/01/04 02:34:17;;;;;;;4.75;2.20;;;;;;;5.92;92.74;101431.66;5971803;29;20043;-74
2023/01/04 02:37:17;;;;;;;;;;;;;;;5.98;92.14;101412.78;5981629;29;20402;-73
2023/01/04 02:40:20;;;;;;;5.15;2.60;;;;;;;5.92;91.75;101386.91;5963902;29;19914;-74
2023/01/04 02:46:35;;;;;;;5.40;2.30;;;;;;;6.03;91.75;101399.34;5980875;29;20117;-74
2023/01/04 02:52:44;;;;;;;;;;;;;;;6.13;91.47;101384.63;5980388;29;20031;-74
2023/01/04 02:55:55;;;;;;;6.30;2.23;;;;;;;6.07;91.17;101362.19;5980291;29;19915;-75
2023/01/04 02:59:28;;;;;;;6.53;2.30;;;;;;;6.20;91.25;101372.75;5963239;29;20065;-75
2023/01/04 03:06:24;;;;;;;5.53;2.70;;;;;;;6.20;91.46;101336.72;5954218;29;20058;-74
2023/01/04 03:09:23;;;;;;;5.35;2.25;;;;;;;6.15;91.70;101338.84;5963097;29;20031;-75
2023/01/04 03:12:31;;;;;;;5.10;1.92;;;;;;;6.15;91.53;101324.81;5962326;29;20036;-75
2023/01/04 03:15:33;;;;;;;8.45;2.17;;;;;;;6.30;90.86;101324.66;5963942;29;20094;-75
2023/01/04 03:18:32;;;;;;;5.07;2.00;;;;;;;6.33;89.85;101315.69;5962885;29;20479;-76
2023/01/04 03:21:27;;;;;;;4.88;2.13;;;;;;;6.31;90.29;101305.25;5962503;29;20027;-75
2023/01/04 03:37:41;;;;;;;6.07;1.58;;;;;;;6.64;89.04;101273.09;5976541;29;20443;-73
2023/01/04 03:50:44;;;;;;;5.18;2.03;;;;;;;6.69;88.37;101220.91;5979664;29;20043;-74
2023/01/04 03:53:59;;;;;;;4.90;2.10;;;;;;;6.74;87.69;101208.25;5961461;29;20071;-75
2023/01/04 03:56:55;;;;;;;7.03;2.50;;;;;;;6.82;87.76;101216.44;5979645;29;20027;-76
2023/01/04 03:59:56;;;;;;;4.95;2.00;;;;;;;6.87;87.69;101210.88;5979084;29;20090;-76
2023/01/04 04:02:51;;;;;;;6.20;2.25;;;;;;;6.84;87.61;101193.50;5961628;29;20171;-73
2023/01/04 04:09:01;;;;;;;3.95;2.17;;;;;;;6.85;88.51;101187.25;5978975;29;20035;-75
2023/01/04 04:11:56;;;;;;;4.47;1.77;;;;;;;6.79;89.52;101161.34;5978591;29;20027;-74
2023/01/04 04:14:52;;;;;;;4.32;1.98;;;;;;;6.75;91.25;101180.97;5979094;29;20094;-74
2023/01/04 04:17:47;;;;;;;8.67;2.33;;;;;;;6.59;92.69;101168.03;5979236;29;20039;-73
2023/01/04 04:20:42;;;;;;;4.37;2.10;;;;;;;6.61;93.49;101170.56;5979019;28;20038;-74
2023/01/04 04:23:38;;;;;;;3.50;1.57;;;;;;;6.54;95.05;101164.06;5978505;29;20410;-74
2023/01/04 04:26:33;;;;;;;6.90;1.93;;;;;;;6.53;95.38;101146.56;5978142;29;20038;-74
2023/01/04 04:29:28;;;;;;;5.30;2.00;;;;;;;6.48;95.97;101144.25;5979234;29;20122;-74
2023/01/04 04:32:23;;;;;;;4.93;1.50;;;;;;;6.38;96.63;101135.34;5978262;29;20391;-74
2023/01/04 04:35:19;;;;;;;4.10;1.67;;;;;;;6.38;97.67;101137.13;5978945;29;20043;-74
2023/01/04 04:38:14;;;;;;;6.23;2.03;;;;;;;6.51;97.86;101153.72;5979195;29;20035;-74
2023/01/04 04:44:25;;;;;;;5.97;2.22;;;;;;;6.33;98.77;101126.88;5964032;29;20035;-73
2023/01/04 04:47:20;;;;;;;4.33;2.30;;;;;;;6.33;99.58;101124.25;5978784;29;20125;-74
2023/01/04 04:50:15;;;;;;;9.80;2.47;;;;;;;6.33;100.00;101126.88;5979931;28;20039;-73
2023/01/04 04:53:11;;;;;;;5.93;1.77;;;;;;;6.29;100.00;101107.00;5982687;29;20039;-73
2023/01/04 04:56:06;;;;;;;9.77;2.10;;;;;;;6.29;100.00;101098.25;5965922;29;20037;-73
2023/01/04 04:59:02;;;;;;;4.43;2.00;;;;;;;6.22;100.00;101086.50;5982551;29;20042;-73
2023/01/04 05:01:58;;;;;;;6.50;2.47;;;;;;;6.28;100.00;101083.41;5982171;29;20030;-74
2023/01/04 05:04:53;;;;;;;3.60;1.93;;;;;;;6.26;100.00;101074.78;5983133;29;20467;-73
2023/01/04 05:07:48;;;;;;;10.77;2.43;;;;;;;6.36;100.00;101075.81;5983118;29;20038;-73
2023/01/04 05:10:44;;;;;;;6.90;2.20;;;;;;;6.19;100.00;101055.13;5982359;29;20039;-72
2023/01/04 05:13:39;;;;;;;7.37;2.37;;;;;;;6.35;100.00;101076.75;5981906;29;20483;-72
2023/01/04 05:16:35;;;;;;;3.33;1.77;;;;;;;6.21;100.00;101056.69;5982665;29;20098;-72
2023/01/04 05:19:30;;;;;;;7.22;2.33;;;;;;;6.37;100.00;101051.16;5982414;28;20100;-73
2023/01/04 05:22:25;;;;;;;5.50;2.07;;;;;;;6.31;100.00;101041.03;5981997;29;20041;-73
2023/01/04 05:25:21;;;;;;;3.70;1.80;;;;;;;6.42;100.00;101049.00;5982478;29;20398;-72
2023/01/04 05:28:16;;;;;;;7.90;1.95;;;;;;;6.42;100.00;101023.53;5982360;29;20079;-73
2023/01/04 05:31:11;;;;;;;3.77;1.33;;;;;;;6.41;100.00;101021.81;5981734;29;20035;-73
2023/01/04 05:34:06;;;;;;;4.53;2.17;;;;;;;6.41;100.00;100989.41;5981828;29;20371;-74
2023/01/04 05:37:02;;;;;;;6.37;2.23;;;;;;;6.49;100.00;100997.59;5982149;29;20283;-73
2023/01/04 05:39:57;;;;;;;7.13;2.10;;;;;;;6.51;100.00;100982.50;5982144;29;20525;-74
2023/01/04 05:42:52;;;;;;;4.90;1.87;;;;;;;6.56;100.00;101001.44;5981592;28;20031;-74
2023/01/04 05:45:49;;;;;;;3.77;1.60;;;;;;;6.47;100.00;100978.41;5981491;29;20120;-74
2023/01/04 05:48:45;;;;;;;3.65;1.88;;;;;;;6.59;100.00;100983.63;5982064;29;20035;-73
2023/01/04 05:51:40;;;;;;;5.33;1.50;;;;;;;6.59;100.00;100941.47;5982047;29;20558;-74
2023/01/04 05:54:35;;;;;;;4.40;1.87;;;;;;;6.71;100.00;100955.53;5981128;29;20278;-74
2023/01/04 05:57:31;;;;;;;4.27;1.60;;;;;;;6.66;100.00;100936.56;5982148;29;20058;-74
2023/01/04 06:00:26;;;;;;;6.00;2.20;;;;;;;6.73;100.00;100942.22;5981657;29;20031;-74
2023/01/04 06:03:21;;;;;;;3.87;1.70;;;;;;;6.71;100.00;100901.97;5980324;28;20438;-74
2023/01/04 06:06:16;;;;;;;3.13;1.63;;;;;;;6.70;100.00;100895.00;5981919;29;20282;-74
2023/01/04 06:09:12;;;;;;;2.60;1.43;;;;;;;6.65;100.00;100908.53;5963927;29;20451;-74
2023/01/04 06:12:08;;;;;;;4.63;1.90;;;;;;;6.72;100.00;100906.25;5980825;29;20031;-74
2023/01/04 06:15:05;;;;;;;4.53;2.42;;;;;;;6.68;100.00;100908.31;5981321;29;20046;-74
2023/01/04 06:18:00;;;;;;;5.13;1.73;;;;;;;6.69;100.00;100903.84;5981270;29;20443;-74
2023/01/04 06:20:55;;;;;;;4.63;2.15;;;;;;;6.69;100.00;100909.13;5981340;28;20039;-73
2023/01/04 06:23:52;;;;;;;3.90;1.77;;;;;;;6.62;100.00;100879.78;5980544;29;20035;-73
2023/01/04 06:26:47;;;;;;;4.57;1.90;;;;;;;6.73;100.00;100893.00;5981246;29;20023;-74
2023/01/04 06:29:42;;;;;;;3.63;1.80;;;;;;;6.74;100.00;100863.03;5980815;29;20094;-74
2023/01/04 06:32:37;;;;;;;3.97;2.03;;;;;;;6.76;100.00;100889.28;5980553;29;20038;-73
2023/01/04 06:35:34;;;;;;;6.43;1.87;;;;;;;6.81;100.00;100882.69;5980367;29;20043;-74
2023/01/04 06:38:30;;;;;;;3.22;1.80;;;;;;;6.81;100.00;100874.78;5980681;29;20027;-74
2023/01/04 06:41:26;;;;;;;4.30;1.80;;;;;;;6.87;100.00;100863.78;5980855;29;20038;-74
2023/01/04 06:44:21;;;;;;;4.13;1.73;;;;;;;6.94;100.00;100862.34;5980125;29;20039;-75
2023/01/04 06:47:16;;;;;;;2.60;1.87;;;;;;;6.90;100.00;100845.06;5980919;29;20035;-75
2023/01/04 06:50:12;;;;;;;4.20;1.63;;;;;;;6.99;100.00;100819.78;5980214;29;20046;-74
2023/01/04 06:53:07;;;;;;;5.20;1.85;;;;;;;6.98;100.00;100824.25;5980188;29;20067;-75
2023/01/04 06:56:02;;;;;;;3.70;1.60;;;;;;;7.04;100.00;100817.63;5980696;29;20043;-74
2023/01/04 06:58:58;;;;;;;3.20;1.58;;;;;;;7.04;100.00;100818.47;5980170;29;20362;-73
2023/01/04 07:01:53;;;;;;;5.13;1.80;;;;;;;7.17;99.96;100803.34;5979812;29;20027;-74
2023/01/04 07:04:49;;;;;;;5.43;1.70;;;;;;;7.22;100.00;100821.47;5980373;29;20039;-75
2023/01/04 07:07:44;;;;;;;5.03;1.97;;;;;;;7.01;99.21;100770.44;5980006;29;20027;-74
2023/01/04 07:10:40;;;;;;;4.57;1.97;;;;;;;7.23;99.62;100801.22;5980334;29;20046;-75
2023/01/04 07:13:35;;;;;;;2.90;1.58;;;;;;;7.22;100.00;100802.16;5978539;28;20048;-75
2023/01/04 07:16:30;;;;;;;6.27;1.77;;;;;;;7.17;100.00;100798.06;5980296;29;20035;-75
2023/01/04 07:19:25;;;;;;;4.10;1.80;;;;;;;7.24;100.00;100830.09;5979780;28;20286;-74
2023/01/04 07:22:21;;;;;;;3.60;1.77;;;;;;;7.17;100.00;100808.63;5979478;29;20050;-75
2023/01/04 07:25:16;;;;;;;5.37;1.67;;;;;;;7.22;100.00;100808.28;5980133;29;20502;-74
2023/01/04 07:29:13;;;;;;;4.10;1.50;;;;;;;7.25;100.00;100805.41;5961909;29;20037;-75
2023/01/04 07:31:27;;;;;;;2.92;1.30;;;;;;;7.23;100.00;100798.56;5979052;29;20290;-74
2023/01/04 07:34:24;;;;;;;3.63;1.57;;;;;;;7.31;100.00;100796.97;5979065;29;20046;-74
2023/01/04 07:37:19;;;;;;;2.40;1.38;;;;;;;7.28;100.00;100784.06;5979623;29;20031;-74
2023/01/04 07:40:15;;;;;;;2.27;1.20;;;;;;;7.38;100.00;100800.81;5979486;29;20065;-75
2023/01/04 07:43:10;;;;;;;2.90;1.50;;;;;;;7.43;100.00;100810.97;5978930;29;20122;-75
2023/01/04 07:46:05;;;;;;;2.17;1.10;;;;;;;7.62;100.00;100817.28;5979681;29;20031;-76
2023/01/04 07:49:01;;;;;;;3.03;1.10;;;;;;;7.61;100.00;100804.25;5979331;29;20049;-75
2023/01/04 07:51:56;;;;;;;2.65;1.30;;;;;;;7.72;99.56;100806.81;5978929;29;20399;-74
2023/01/04 07:54:51;;;;;;;2.73;1.00;;;;;;;7.71;99.56;100790.16;5978778;29;20047;-74
2023/01/04 07:57:47;;;;;;;2.27;1.00;;;;;;;7.89;99.16;100790.44;5979551;29;20034;-75
2023/01/04 08:00:42;;;;;;;3.70;1.10;;;;;;;7.91;98.85;100799.06;5979201;29;20498;-74
2023/01/04 08:03:37;;;;;;;3.47;1.23;;;;;;;7.94;98.71;100801.44;5978167;29;20035;-75
2023/01/04 08:06:33;;;;;;;2.60;1.05;;;;;;;8.01;98.91;100810.56;5979263;29;20062;-74
2023/01/04 08:09:29;;;;;;;1.90;0.90;;;;;;;8.08;98.53;100809.06;5978531;29;20047;-74
2023/01/04 08:12:24;;;;;;;2.10;1.10;;;;;;;8.12;98.34;100809.66;5978692;29;20032;-75
2023/01/04 08:15:19;;;;;;;2.97;1.20;;;;;;;8.23;98.22;100810.44;5979299;29;20031;-75
2023/01/04 08:18:14;;;;;;;2.40;0.80;;;;;;;8.19;97.90;100810.81;5978870;29;20043;-75
2023/01/04 08:21:10;;;;;;;1.27;0.87;;;;;;;8.17;98.11;100813.59;5978719;28;20282;-75
2023/01/04 08:24:05;;;;;;;2.33;1.00;;;;;;;8.22;97.98;100821.13;5978233;29;20043;-74
2023/01/04 08:27:01;;;;;;;2.38;1.00;;;;;;;8.18;97.99;100812.59;5982900;28;20549;-74
2023/01/04 08:29:56;;;;;;;1.90;0.87;;;;;;;8.20;98.68;100818.63;5984371;29;20094;-75
2023/01/04 08:32:52;;;;;;;1.65;0.75;;;;;;;8.20;98.14;100815.13;5982573;29;20035;-75
2023/01/04 08:35:47;;;;;;;1.90;1.10;;;;;;;8.23;98.11;100812.25;5983846;29;20101;-75
2023/01/04 08:38:43;;;;;;;1.77;1.00;;;;;;;8.16;98.40;100811.06;5983442;29;20049;-75
2023/01/04 08:41:50;;;;;;;2.17;1.23;;;;;;;8.25;98.26;100816.44;5982908;29;20039;-74
2023/01/04 08:44:45;;;;;;;1.02;0.63;;;;;;;8.22;98.34;100803.47;5983493;29;20039;-75
2023/01/04 08:47:40;;;;;;;3.20;1.20;;;;;;;8.34;98.15;100814.84;5966039;29;20047;-75
2023/01/04 08:50:36;;;;;;;2.33;0.83;;;;;;;8.35;97.92;100814.72;5982814;29;20549;-75
2023/01/04 08:53:31;;;;;;;3.23;0.80;;;;;;;8.36;97.78;100803.19;5982610;29;20313;-74
2023/01/04 08:56:26;;;;;;;1.80;0.97;;;;;;;8.36;98.29;100799.69;5983479;29;20479;-75
2023/01/04 08:59:22;;;;;;;2.63;0.87;;;;;;;8.26;98.82;100796.94;5982377;29;20270;-75
2023/01/04 09:02:20;;;;;;;1.53;0.90;;;;;;;8.31;99.57;100791.34;5982387;29;20459;-74
2023/01/04 09:05:16;;;;;;;1.13;0.80;;;;;;;8.28;99.37;100788.94;5982790;29;20035;-76
2023/01/04 09:08:11;;;;;;;2.53;0.83;;;;;;;8.28;99.41;100773.09;5982556;29;20062;-75
2023/01/04 09:11:09;;;;;;;3.30;1.10;;;;;;;8.30;99.37;100782.56;5981963;29;20027;-75
2023/01/04 09:14:07;;;;;;;3.38;0.80;;;;;;;8.29;99.86;100791.44;5981873;29;20541;-75
2023/01/04 09:17:03;;;;;;;3.53;1.15;;;;;;;8.17;100.00;100787.19;5982633;29;20035;-74
2023/01/04 09:19:58;;;;;;;2.38;1.20;;;;;;;7.93;100.00;100780.47;5982596;28;20031;-75
2023/01/04 09:22:56;;;;;;;2.20;1.23;;;;;;;7.87;100.00;100780.97;5981948;29;20082;-73
2023/01/04 09:25:51;;;;;;;6.53;1.75;;;;;;;7.68;100.00;100763.19;5982325;29;20087;-74
2023/01/04 09:28:48;;;;;;;3.53;1.07;;;;;;;7.67;100.00;100772.03;5982550;29;20376;-74
2023/01/04 09:31:43;;;;;;;3.28;1.27;;;;;;;7.71;100.00;100790.16;5981907;29;20027;-74
2023/01/04 09:34:38;;;;;;;2.73;1.17;;;;;;;7.68;100.00;100800.97;5981589;29;20042;-74
2023/01/04 09:37:34;;;;;;;2.77;1.10;;;;;;;7.61;100.00;100762.03;5979537;28;20023;-75
2023/01/04 09:40:49;;;;;;;3.50;1.60;;;;;;;7.65;100.00;100766.06;5981175;29;20122;-74
2023/01/04 09:43:51;;;;;;;3.33;1.52;;;;;;;7.66;100.00;100763.28;5981652;29;20035;-74
2023/01/04 09:46:58;;;;;;;3.30;1.00;;;;;;;7.70;100.00;100755.97;5982020;29;20376;-74
2023/01/04 09:49:55;;;;;;;2.13;0.90;;;;;;;7.66;100.00;100738.72;5962156;29;20038;-74
2023/01/04 09:53:09;;;;;;;2.60;1.27;;;;;;;7.82;100.00;100760.25;5981380;29;20490;-73
2023/01/04 09:56:12;;;;;;;2.22;0.90;;;;;;;7.84;100.00;100747.75;5981835;29;20035;-74
2023/01/04 09:59:12;;;;;;;1.52;0.98;;;;;;;7.83;100.00;100722.28;5964736;29;20364;-73
2023/01/04 10:02:14;;;;;;;1.85;0.88;;;;;;;7.89;100.00;100719.16;5981011;29;20031;-73
2023/01/04 10:05:22;;;;;;;2.53;0.93;;;;;;;7.88;100.00;100714.81;5964223;29;20371;-73
2023/01/04 10:08:19;;;;;;;1.88;0.82;;;;;;;7.92;100.00;100710.13;5980657;29;20050;-74
2023/01/04 10:11:37;;;;;;;2.05;0.60;;;;;;;8.08;100.00;100721.91;5963963;29;20115;-74
2023/01/04 10:15:07;;;;;;;2.80;1.10;;;;;;;8.09;100.00;100726.25;5963694;29;20389;-74
2023/01/04 10:18:14;;;;;;;1.63;0.80;;;;;;;8.17;100.00;100702.66;5980882;29;20061;-73
2023/01/04 10:21:27;;;;;;;1.17;0.65;;;;;;;8.27;100.00;100698.28;5972869;28;20035;-74
2023/01/04 10:24:38;;;;;;;2.67;0.88;;;;;;;8.35;100.00;100689.69;5960341;28;20027;-73
2023/01/04 10:27:44;;;;;;;2.53;0.82;;;;;;;8.43;100.00;100686.38;5975864;28;20042;-76
2023/01/04 10:31:01;;;;;;;1.50;0.75;;;;;;;8.46;100.00;100679.03;5970419;28;20023;-75
2023/01/04 10:34:04;;;;;;;1.63;0.70;;;;;;;8.48;100.00;100684.19;5973443;29;20368;-74
2023/01/04 10:37:05;;;;;;;2.55;0.80;;;;;;;8.48;100.00;100671.00;5991615;28;20046;-75
2023/01/04 10:40:01;;;;;;;1.42;0.80;;;;;;;8.56;100.00;100663.22;5964453;28;20027;-74
2023/01/04 10:43:15;;;;;;;1.65;0.88;;;;;;;8.62;100.00;100662.66;5975008;28;20058;-75
2023/01/04 10:46:14;;;;;;;1.30;0.60;;;;;;;8.60;100.00;100657.53;5982492;28;20038;-74
2023/01/04 10:49:40;;;;;;;3.88;0.70;;;;;;;8.67;100.00;100668.41;5980099;28;20031;-76
2023/01/04 10:52:42;;;;;;;1.08;0.70;;;;;;;8.68;100.00;100680.63;5972367;28;20051;-74
2023/01/04 10:55:42;;;;;;;2.10;0.88;;;;;;;8.55;100.00;100643.03;5985789;28;20039;-75
2023/01/04 10:58:47;;;;;;;2.22;0.90;;;;;;;8.61;100.00;100656.56;5969885;29;20050;-75
2023/01/04 11:01:46;;;;;;;1.75;1.00;;;;;;;8.67;100.00;100657.84;5973476;28;20031;-75
2023/01/04 11:04:59;;;;;;;1.95;0.90;;;;;;;8.78;100.00;100653.25;5979914;28;20475;-75
2023/01/04 11:08:17;;;;;;;0.77;0.50;;;;;;;8.85;100.00;100650.91;5980320;29;20450;-74
2023/01/04 11:11:25;;;;;;;1.27;0.75;;;;;;;8.74;100.00;100646.59;5951135;29;20066;-74
2023/01/04 11:14:21;;;;;;;;;;;;;;;8.85;100.00;100661.50;5979648;28;20093;-73
2023/01/04 11:17:16;;;;;;;1.58;0.88;;;;;;;8.71;100.00;100643.38;5979505;28;20445;-72
2023/01/04 11:20:12;;;;;;;1.65;0.57;;;;;;;8.65;100.00;100622.75;5979985;28;20047;-73
2023/01/04 11:23:12;;;;;;;1.60;0.67;;;;;;;8.71;100.00;100653.94;5978851;29;20035;-74
2023/01/04 11:26:12;;;;;;;1.83;0.60;;;;;;;8.58;100.00;100640.13;5979821;28;20263;-73
2023/01/04 11:29:43;;;;;;;1.70;0.60;;;;;;;8.64;100.00;100647.53;5962320;29;20090;-73
2023/01/04 11:32:55;;;;;;;1.15;0.63;;;;;;;8.52;100.00;100608.97;5958733;29;20469;-74
2023/01/04 11:35:57;;;;;;;2.15;0.85;;;;;;;8.58;100.00;100616.34;5983200;28;20041;-73
2023/01/04 11:38:54;;;;;;;1.70;0.82;;;;;;;8.67;100.00;100628.75;5987138;28;20034;-73
2023/01/04 11:41:53;;;;;;;1.00;0.65;;;;;;;8.65;100.00;100625.41;5967203;29;20039;-74
2023/01/04 11:44:58;;;;;;;3.70;0.70;;;;;;;8.55;100.00;100595.47;5979747;29;20098;-73
2023/01/04 11:47:55;;;;;;;1.63;0.73;;;;;;;8.62;100.00;100608.00;5979384;29;20059;-74
2023/01/04 11:50:54;;;;;;;0.77;0.65;;;;;;;8.58;100.00;100590.75;5979397;28;20039;-74
2023/01/04 11:54:04;;;;;;;2.78;0.80;;;;;;;8.66;100.00;100598.84;5984571;28;20116;-74
2023/01/04 11:57:07;;;;;;;1.30;0.82;;;;;;;8.74;100.00;100612.22;5979294;28;20114;-74
2023/01/04 12:00:12;;;;;;;1.80;0.80;;;;;;;8.79;100.00;100593.28;5979056;29;20529;-75
2023/01/04 12:03:13;;;;;;;2.03;0.70;;;;;;;8.84;100.00;100593.69;5961457;29;20074;-75
2023/01/04 12:06:34;;;;;;;0.98;0.52;;;;;;;8.88;100.00;100595.94;5986600;28;20058;-74
2023/01/04 12:09:29;;;;;;;1.38;0.60;;;;;;;8.86;100.00;100594.41;5965439;28;20050;-73
2023/01/04 12:12:29;;;;;;;2.20;0.70;;;;;;;8.82;100.00;100571.88;5960853;29;20039;-73
2023/01/04 12:15:31;;;;;;;3.10;0.88;;;;;;;8.82;100.00;100516.34;5978937;29;20050;-74
2023/01/04 12:18:35;;;;;;;2.88;0.68;;;;;;;8.87;100.00;100559.91;5962393;29;20058;-76
2023/01/04 12:21:32;;;;;;;1.10;0.90;;;;;;;8.85;100.00;100555.72;5973644;28;20099;-75
2023/01/04 12:24:30;;;;;;;1.70;0.88;;;;;;;8.90;100.00;100566.72;5978380;28;20046;-76
2023/01/04 12:27:25;;;;;;;0.60;0.50;;;;;;;8.96;100.00;100567.00;5967430;29;20039;-74
2023/01/04 12:30:34;;;;;;;0.85;0.60;;;;;;;9.00;100.00;100559.59;5983549;28;20066;-75
2023/01/04 12:33:32;;;;;;;0.82;0.50;;;;;;;9.03;100.00;100551.41;5978352;29;20035;-75
2023/01/04 12:36:36;;;;;;;1.25;0.73;;;;;;;8.96;100.00;100531.78;5978623;28;20043;-74
2023/01/04 12:39:45;;;;;;;1.02;0.70;;;;;;;8.98;100.00;100532.47;5979044;28;20027;-75
2023/01/04 12:43:13;;;;;;;0.73;0.50;;;;;;;9.08;100.00;100551.81;5977860;28;20515;-75
2023/01/04 12:49:41;;;;;;;1.10;0.60;;;;;;;9.11;100.00;100535.66;5978513;29;20042;-74
2023/01/04 12:52:41;;;;;;;1.50;0.70;;;;;;;9.03;100.00;100517.00;5978072;29;20063;-75
2023/01/04 12:55:43;;;;;;;1.42;1.05;;;;;;;9.14;100.00;100519.50;5978694;29;20027;-76
2023/01/04 12:58:39;;;;;;;1.25;0.70;;;;;;;9.03;100.00;100510.88;5978668;28;20062;-75
2023/01/04 13:01:35;;;;;;;1.08;0.70;;;;;;;9.14;100.00;100524.81;5989697;28;20070;-74
2023/01/04 13:04:39;;;;;;;1.85;0.80;;;;;;;9.16;100.00;100528.13;5977970;28;20043;-74
2023/01/04 13:07:43;;;;;;;1.05;0.57;;;;;;;9.23;100.00;100531.91;5978600;29;20035;-74
2023/01/04 13:10:46;;;;;;;2.55;1.10;;;;;;;9.21;100.00;100514.50;5978702;28;20031;-75
2023/01/04 13:13:51;;;;;;;0.73;0.50;;;;;;;9.25;100.00;100513.22;5982129;29;20431;-74
2023/01/04 13:16:53;;;;;;;1.17;0.88;;;;;;;9.36;100.00;100518.34;5985629;28;20086;-74
2023/01/04 13:19:49;;;;;;;1.83;0.57;;;;;;;9.32;100.00;100493.97;5970926;28;20054;-74
2023/01/04 13:22:49;;;;;;;1.02;0.60;;;;;;;9.39;100.00;100510.13;5982139;29;20027;-74
2023/01/04 13:25:45;;;;;;;0.52;0.43;;;;;;;9.34;100.00;100483.28;5965585;29;20170;-74
2023/01/04 13:28:41;;;;;;;1.00;0.50;;;;;;;9.48;100.00;100483.63;5980343;28;20371;-74
2023/01/04 13:31:52;;;;;;;0.68;0.50;;;;;;;9.51;100.00;100487.81;5982301;29;20039;-74
2023/01/04 13:35:10;;;;;;;0.65;0.55;;;;;;;9.53;100.00;100478.75;5983971;28;20046;-75
2023/01/04 13:38:13;;;;;;;1.30;0.45;;;;;;;9.49;100.00;100469.41;5982288;28;20459;-74
2023/01/04 13:41:19;;;;;;;1.58;0.73;;;;;;;9.49;100.00;100476.53;5965023;29;20106;-75
2023/01/04 13:44:37;;;;;;;3.30;1.27;;;;;;;9.65;100.00;100481.22;5964433;29;20059;-74
2023/01/04 13:47:35;;;;;;;3.47;1.00;;;;;;;9.68;100.00;100470.31;5981825;29;20042;-75
2023/01/04 13:50:42;;;;;;;2.55;1.00;;;;;;;9.73;100.00;100468.09;5982003;28;20391;-74
2023/01/04 13:53:38;;;;;;;0.57;0.50;;;;;;;9.72;100.00;100434.63;5973969;28;20399;-74
2023/01/04 13:56:33;;;;;;;2.70;0.82;;;;;;;9.74;100.00;100438.78;5981676;29;20035;-74
2023/01/04 13:59:29;;;;;;;1.65;0.77;;;;;;;9.80;100.00;100432.09;5964362;29;20041;-74
2023/01/04 14:02:25;;;;;;;1.10;0.70;;;;;;;9.91;100.00;100461.00;5980060;29;20030;-75
2023/01/04 14:05:20;;;;;;;0.97;0.50;;;;;;;9.91;100.00;100445.13;5981583;29;20042;-74
2023/01/04 14:08:26;;;;;;;1.40;0.53;;;;;;;10.01;100.00;100444.06;5987593;28;20035;-73
2023/01/04 14:14:47;;;;;;;0.30;0.30;;;;;;;10.02;100.00;100436.97;5966712;29;20039;-75
2023/01/04 14:17:56;;;;;;;0.52;0.20;;;;;;;9.92;100.00;100415.00;5965875;28;20438;-75
2023/01/04 14:20:51;;;;;;;0.68;0.50;;;;;;;10.00;100.00;100438.94;5979750;28;20027;-75
2023/01/04 14:23:47;;;;;;;1.75;0.90;;;;;;;9.99;100.00;100435.44;5980077;28;20094;-75
2023/01/04 14:26:42;;;;;;;1.17;0.47;;;;;;;10.01;100.00;100427.34;5962768;29;20098;-75
2023/01/04 14:29:39;;;;;;;0.50;0.20;;;;;;;10.05;100.00;100420.78;5981377;29;20390;-74
2023/01/04 14:32:34;;;;;;;0.63;0.50;;;;;;;10.07;100.00;100424.09;5982346;28;20031;-75
2023/01/04 14:35:29;;;;;;;0.70;0.60;;;;;;;10.05;100.00;100418.13;5980409;28;20050;-73
2023/01/04 14:38:24;;;;;;;2.27;0.50;;;;;;;10.07;100.00;100426.75;5963543;29;20672;-75
2023/01/04 14:41:31;;;;;;;1.20;0.30;;;;;;;10.02;100.00;100415.78;5974626;28;20106;-75
2023/01/04 14:44:29;;;;;;;0.73;0.63;;;;;;;10.00;100.00;100407.16;5995422;28;20075;-74
2023/01/04 14:47:24;;;;;;;1.25;0.50;;;;;;;10.15;100.00;100434.81;5981749;28;20501;-75